createdAt,value
2023-09-27T00:02:39.228Z,102117.28
2023-09-27T00:07:26.659Z,102105.78
2023-09-27T00:12:16.906Z,102115.13
2023-09-27T00:17:06.434Z,102114.41
2023-09-27T00:21:53.698Z,102045.44
2023-09-27T00:26:40.962Z,102088.75
2023-09-27T00:31:30.783Z,102114.38
2023-09-27T00:36:18.198Z,102076.16
2023-09-27T00:41:05.654Z,102101.41
2023-09-27T00:45:54.903Z,102106.34
2023-09-27T00:50:45.318Z,102094.03
2023-09-27T00:55:32.584Z,102101.50
2023-09-27T01:00:20.917Z,102072.69
2023-09-27T01:05:08.903Z,102057.41
2023-09-27T01:09:58.795Z,102097.19
2023-09-27T01:14:46.594Z,102098.25
2023-09-27T01:19:34.705Z,102077.34
2023-09-27T01:24:24.514Z,102099.44
2023-09-27T01:29:11.809Z,102104.59
2023-09-27T01:34:00.694Z,102066.84
2023-09-27T01:38:47.834Z,102029.44
2023-09-27T01:43:37.639Z,102083.75
2023-09-27T01:48:24.833Z,102110.38
2023-09-27T01:53:12.222Z,102085.69
2023-09-27T01:58:00.420Z,102105.16
2023-09-27T02:02:52.805Z,102099.44
2023-09-27T02:07:40.662Z,102083.69
2023-09-27T02:12:27.792Z,102116.19
2023-09-27T02:17:15.102Z,102071.53
2023-09-27T02:22:04.937Z,102077.44
2023-09-27T02:26:52.260Z,102050.38
2023-09-27T02:31:39.642Z,102067.34
2023-09-27T02:36:27.361Z,102023.72
2023-09-27T02:41:17.171Z,102082.97
2023-09-27T02:46:04.483Z,102091.63
2023-09-27T02:50:52.378Z,102035.44
2023-09-27T02:55:39.590Z,102075.56
2023-09-27T03:00:33.010Z,102063.34
2023-09-27T03:05:23.319Z,102081.03
2023-09-27T03:10:10.996Z,102067.69
2023-09-27T03:14:58.638Z,102099.22
2023-09-27T03:19:50.122Z,102106.34
2023-09-27T03:24:38.990Z,102068.91
2023-09-27T03:29:28.878Z,102115.66
2023-09-27T03:34:16.338Z,102123.94
2023-09-27T03:39:08.062Z,102085.44
2023-09-27T03:43:55.520Z,102105.75
2023-09-27T03:48:42.818Z,102138.13
2023-09-27T03:53:30.267Z,102072.03
2023-09-27T03:58:20.133Z,102126.66
2023-09-27T04:03:07.593Z,102121.19
2023-09-27T04:07:55.060Z,102114.16
2023-09-27T04:12:42.376Z,102097.75
2023-09-27T04:17:32.237Z,102105.75
2023-09-27T04:22:20.214Z,102125.59
2023-09-27T04:27:07.432Z,102113.06
2023-09-27T04:31:54.762Z,102098.19
2023-09-27T04:36:44.692Z,102109.63
2023-09-27T04:41:31.937Z,102073.47
2023-09-27T04:46:19.840Z,102012.47
2023-09-27T04:51:07.272Z,102029.31
2023-09-27T04:55:57.179Z,102050.03
2023-09-27T05:00:44.472Z,102068.84
2023-09-27T05:05:35.119Z,102078.53
2023-09-27T05:10:22.419Z,102084.72
2023-09-27T05:15:12.425Z,102055.63
2023-09-27T05:19:59.654Z,102054.13
2023-09-27T05:24:46.873Z,102088.06
2023-09-27T05:29:34.028Z,102068.16
2023-09-27T05:34:24.131Z,102071.81
2023-09-27T05:39:11.590Z,101997.56
2023-09-27T05:43:58.861Z,102086.97
2023-09-27T05:48:46.434Z,102022.31
2023-09-27T05:53:37.547Z,102063.84
2023-09-27T05:58:24.788Z,102059.06
2023-09-27T06:03:12.047Z,102088.56
2023-09-27T06:08:03.224Z,102057.88
2023-09-27T06:12:53.207Z,102045.03
2023-09-27T06:17:43.578Z,102090.53
2023-09-27T06:22:30.807Z,102069.22
2023-09-27T06:27:18.218Z,102073.38
2023-09-27T06:32:08.339Z,102057.59
2023-09-27T06:36:55.632Z,102014.19
2023-09-27T06:41:43.045Z,102038.34
2023-09-27T06:46:42.964Z,102034.69
2023-09-27T06:51:38.241Z,102079.03
2023-09-27T06:56:25.421Z,102082.91
2023-09-27T07:01:12.771Z,102064.22
2023-09-27T07:06:00.437Z,102115.78
2023-09-27T07:11:04.109Z,102082.53
2023-09-27T07:15:53.475Z,102070.69
2023-09-27T07:20:41.935Z,102138.97
2023-09-27T07:25:29.170Z,102132.78
2023-09-27T07:30:21.622Z,102075.81
2023-09-27T07:35:09.657Z,102077.31
2023-09-27T07:39:56.964Z,102128.00
2023-09-27T07:44:44.261Z,102118.41
2023-09-27T07:49:34.139Z,102146.19
2023-09-27T07:54:21.336Z,102140.22
2023-09-27T07:59:08.859Z,102041.78
2023-09-27T08:03:56.339Z,102130.41
2023-09-27T08:08:46.862Z,102142.63
2023-09-27T08:13:34.315Z,102104.63
2023-09-27T08:18:21.844Z,102124.13
2023-09-27T08:23:09.493Z,102084.69
2023-09-27T08:27:59.434Z,102120.16
2023-09-27T08:32:46.892Z,102124.81
2023-09-27T08:37:34.148Z,102102.50
2023-09-27T08:42:22.029Z,102091.00
2023-09-27T08:47:12.069Z,102105.66
2023-09-27T08:51:59.393Z,102099.13
2023-09-27T08:56:49.573Z,102085.59
2023-09-27T09:01:40.100Z,102101.63
2023-09-27T09:06:30.194Z,102069.69
2023-09-27T09:11:17.532Z,102110.69
2023-09-27T09:16:14.782Z,102010.41
2023-09-27T09:21:02.235Z,102090.94
2023-09-27T09:25:52.112Z,102097.16
2023-09-27T09:30:40.899Z,102097.25
2023-09-27T09:35:31.852Z,102085.69
2023-09-27T09:40:19.054Z,102075.56
2023-09-27T09:45:10.425Z,102107.75
2023-09-27T09:49:57.647Z,102112.47
2023-09-27T09:54:46.625Z,102095.44
2023-09-27T09:59:38.100Z,102095.88
2023-09-27T10:04:29.667Z,102088.56
2023-09-27T10:09:18.455Z,102058.69
2023-09-27T10:14:06.811Z,102065.50
2023-09-27T10:18:55.723Z,101965.19
2023-09-27T10:24:05.303Z,102018.88
2023-09-27T10:29:14.203Z,102042.16
2023-09-27T10:34:01.581Z,101980.31
2023-09-27T10:39:04.399Z,102036.09
2023-09-27T10:43:51.832Z,102004.22
2023-09-27T10:48:39.314Z,102023.75
2023-09-27T10:53:29.353Z,101974.56
2023-09-27T10:58:19.998Z,101931.31
2023-09-27T11:03:28.317Z,101981.97
2023-09-27T11:08:25.934Z,101949.94
2023-09-27T11:13:25.089Z,101977.63
2023-09-27T11:18:13.415Z,101974.44
2023-09-27T11:23:01.630Z,101975.75
2023-09-27T11:27:48.861Z,101968.16
2023-09-27T11:32:54.783Z,101948.63
2023-09-27T11:37:42.254Z,101944.34
2023-09-27T11:42:29.502Z,101958.72
2023-09-27T11:47:16.879Z,101953.59
2023-09-27T11:52:07.182Z,101941.25
2023-09-27T11:56:54.675Z,101906.00
2023-09-27T12:01:42.051Z,101905.47
2023-09-27T12:06:29.646Z,101897.56
2023-09-27T12:11:19.810Z,101835.97
2023-09-27T12:16:07.180Z,101811.16
2023-09-27T12:20:54.656Z,101852.63
2023-09-27T12:25:41.906Z,101847.34
2023-09-27T12:30:32.151Z,101833.88
2023-09-27T12:35:19.322Z,101811.31
2023-09-27T12:40:08.211Z,101824.47
2023-09-27T12:44:55.387Z,101810.44
2023-09-27T12:49:45.278Z,101727.94
2023-09-27T12:54:32.448Z,101806.25
2023-09-27T12:59:19.774Z,101788.28
2023-09-27T13:04:07.395Z,101739.56
2023-09-27T13:08:57.613Z,101748.47
2023-09-27T13:13:44.777Z,101791.69
2023-09-27T13:18:31.889Z,101787.44
2023-09-27T13:23:19.419Z,101824.34
2023-09-27T13:28:09.418Z,101797.69
2023-09-27T13:32:56.653Z,101768.28
2023-09-27T13:37:43.904Z,101811.31
2023-09-27T13:42:31.058Z,101779.78
2023-09-27T13:47:20.937Z,101796.16
2023-09-27T13:52:08.076Z,101786.91
2023-09-27T13:56:55.217Z,101784.88
2023-09-27T14:01:42.389Z,101772.06
2023-09-27T14:06:32.181Z,101736.59
2023-09-27T14:11:19.598Z,101719.72
2023-09-27T14:16:06.819Z,101726.03
2023-09-27T14:20:54.288Z,101747.03
2023-09-27T14:25:44.199Z,101733.72
2023-09-27T14:30:31.474Z,101730.25
2023-09-27T14:35:18.924Z,101752.69
2023-09-27T14:40:07.645Z,101724.47
2023-09-27T14:44:57.499Z,101722.03
2023-09-27T14:49:44.770Z,101716.56
2023-09-27T14:54:31.954Z,101628.66
2023-09-27T14:59:19.156Z,101683.78
2023-09-27T15:04:09.389Z,101684.13
2023-09-27T15:08:56.626Z,101686.03
2023-09-27T15:13:43.724Z,101654.75
2023-09-27T15:18:31.147Z,101649.28
2023-09-27T15:23:21.229Z,101584.75
2023-09-27T15:28:08.578Z,101655.13
2023-09-27T15:32:55.691Z,101629.84
2023-09-27T15:37:52.003Z,101628.50
2023-09-27T15:42:41.820Z,101640.63
2023-09-27T15:47:29.089Z,101629.53
2023-09-27T15:52:16.261Z,101635.84
2023-09-27T15:57:03.450Z,101618.41
2023-09-27T16:01:53.278Z,101635.84
2023-09-27T16:06:40.542Z,101617.06
2023-09-27T16:11:27.914Z,101637.25
2023-09-27T16:16:15.056Z,101621.66
2023-09-27T16:21:04.885Z,101619.81
2023-09-27T16:25:52.050Z,101609.91
2023-09-27T16:30:40.419Z,101604.97
2023-09-27T16:35:28.275Z,101601.91
2023-09-27T16:40:18.456Z,101629.91
2023-09-27T16:45:06.656Z,101599.97
2023-09-27T16:49:53.858Z,101611.41
2023-09-27T16:54:41.245Z,101608.84
2023-09-27T16:59:31.243Z,101582.88
2023-09-27T17:04:18.517Z,101557.75
2023-09-27T17:09:05.881Z,101536.56
2023-09-27T17:13:53.390Z,101488.75
2023-09-27T17:18:43.428Z,101576.84
2023-09-27T17:23:30.617Z,101577.84
2023-09-27T17:28:17.857Z,101517.84
2023-09-27T17:33:05.803Z,101567.72
2023-09-27T17:37:55.685Z,101557.59
2023-09-27T17:42:42.879Z,101498.19
2023-09-27T17:47:30.170Z,101537.75
2023-09-27T17:52:17.328Z,101543.91
2023-09-27T17:57:07.186Z,101530.25
2023-09-27T18:01:54.406Z,101506.88
2023-09-27T18:06:41.659Z,101517.25
2023-09-27T18:11:28.751Z,101526.47
2023-09-27T18:16:19.746Z,101523.38
2023-09-27T18:21:06.892Z,101495.03
2023-09-27T18:25:54.003Z,101484.41
2023-09-27T18:30:41.138Z,101495.31
2023-09-27T18:35:31.398Z,101521.78
2023-09-27T18:40:19.567Z,101456.81
2023-09-27T18:45:08.331Z,101513.00
2023-09-27T18:49:55.557Z,101478.41
2023-09-27T18:54:45.527Z,101485.63
2023-09-27T18:59:32.805Z,101499.03
2023-09-27T19:04:20.243Z,101481.47
2023-09-27T19:09:07.569Z,101483.28
2023-09-27T19:13:57.661Z,101506.50
2023-09-27T19:18:45.106Z,101461.28
2023-09-27T19:23:33.187Z,101483.84
2023-09-27T19:28:21.882Z,101471.84
2023-09-27T19:33:12.017Z,101461.34
2023-09-27T19:37:59.386Z,101424.56
2023-09-27T19:42:46.690Z,101378.25
2023-09-27T19:47:36.165Z,101440.81
2023-09-27T19:52:26.399Z,101425.97
2023-09-27T19:57:13.737Z,101409.63
2023-09-27T20:02:01.149Z,101396.63
2023-09-27T20:06:48.532Z,101422.94
2023-09-27T20:11:38.763Z,101432.44
2023-09-27T20:16:26.195Z,101330.75
2023-09-27T20:21:14.086Z,101390.56
2023-09-27T20:26:02.136Z,101399.66
2023-09-27T20:30:52.152Z,101395.28
2023-09-27T20:35:39.604Z,101358.53
2023-09-27T20:40:27.175Z,101394.38
2023-09-27T20:45:14.696Z,101401.75
2023-09-27T20:50:05.123Z,101360.28
2023-09-27T20:54:52.557Z,101399.03
2023-09-27T20:59:39.856Z,101366.66
2023-09-27T21:04:27.368Z,101365.78
2023-09-27T21:09:17.493Z,101334.09
2023-09-27T21:14:05.305Z,101323.19
2023-09-27T21:18:53.064Z,101291.34
2023-09-27T21:23:40.366Z,101298.66
2023-09-27T21:28:30.233Z,101299.66
2023-09-27T21:33:17.493Z,101273.34
2023-09-27T21:38:05.174Z,101400.31
2023-09-27T21:42:52.611Z,101406.09
2023-09-27T21:47:42.547Z,101397.06
2023-09-27T21:52:29.900Z,101342.06
2023-09-27T21:57:17.277Z,101353.03
2023-09-27T22:02:04.509Z,101352.19
2023-09-27T22:06:54.487Z,101365.13
2023-09-27T22:11:41.829Z,101392.53
2023-09-27T22:16:29.178Z,101358.72
2023-09-27T22:21:24.049Z,101360.91
2023-09-27T22:26:16.343Z,101394.16
2023-09-27T22:31:04.482Z,101356.28
2023-09-27T22:36:01.832Z,101376.59
2023-09-27T22:40:49.197Z,101376.44
2023-09-27T22:45:39.576Z,101341.97
2023-09-27T22:50:27.020Z,101373.34
2023-09-27T22:55:14.460Z,101350.50
2023-09-27T23:00:01.790Z,101387.00
2023-09-27T23:04:51.832Z,101348.75
2023-09-27T23:09:39.095Z,101334.94
2023-09-27T23:14:26.295Z,101337.44
2023-09-27T23:19:14.401Z,101356.91
2023-09-27T23:24:04.929Z,101395.44
2023-09-27T23:28:52.207Z,101399.16
2023-09-27T23:33:40.789Z,101390.84
2023-09-27T23:38:28.027Z,101360.63
2023-09-27T23:43:17.948Z,101390.31
2023-09-27T23:48:08.261Z,101377.13
2023-09-27T23:52:55.589Z,101372.94
2023-09-27T23:57:43.538Z,101415.38
